Time;durP1;ratioP1;P1;durP2;ratioP2;P2;SDS_P1;SDS_P2;PMS_P1;PMS_P2;Temp;Humidity;BMP_temperature;BMP_pressure;BME280_temperature;BME280_humidity;BME280_pressure;Samples;Min_cycle;Max_cycle;Signal;HPM_P1;HPM_P2
2023/06/12 00:00:26;;;;;;;3.80;2.10;;;;;;;19.13;42.92;101529.13;15556919;28;20065;-50
2023/06/12 00:08:00;;;;;;;5.38;2.05;;;;;;;18.89;42.96;101530.34;15556978;28;20069;-50
2023/06/12 00:15:35;;;;;;;5.00;1.88;;;;;;;18.88;41.93;101537.66;15557874;28;20100;-50
2023/06/12 00:23:10;;;;;;;4.20;1.70;;;;;;;18.62;43.15;101530.94;15555597;28;20097;-51
2023/06/12 00:30:44;;;;;;;3.28;2.10;;;;;;;18.18;43.25;101530.63;15554648;28;20056;-49
2023/06/12 00:38:16;;;;;;;3.13;1.80;;;;;;;18.18;43.47;101527.94;15557466;28;20070;-50
2023/06/12 00:45:50;;;;;;;2.33;1.30;;;;;;;18.02;42.46;101534.13;15556375;28;20050;-49
2023/06/12 00:53:23;;;;;;;3.67;1.65;;;;;;;18.22;41.45;101536.44;15554442;28;20532;-48
2023/06/12 01:00:57;;;;;;;3.80;1.65;;;;;;;18.08;41.37;101536.69;15536608;28;20054;-51
2023/06/12 01:08:38;;;;;;;5.50;1.73;;;;;;;18.07;41.02;101540.50;15536384;28;20055;-50
2023/06/12 01:16:13;;;;;;;3.33;1.70;;;;;;;18.16;40.65;101540.94;15553295;28;20068;-48
2023/06/12 01:24:05;;;;;;;3.00;1.60;;;;;;;18.05;41.26;101544.53;15536429;28;20545;-48
2023/06/12 01:31:56;;;;;;;2.33;1.37;;;;;;;17.90;42.00;101545.00;15551420;28;20177;-49
2023/06/12 01:39:31;;;;;;;4.17;1.33;;;;;;;17.71;42.33;101538.88;15534332;28;20050;-51
2023/06/12 01:47:07;;;;;;;2.83;1.50;;;;;;;17.45;42.97;101534.78;15533448;28;20077;-51
2023/06/12 01:54:40;;;;;;;3.17;1.98;;;;;;;17.34;43.35;101544.53;15549597;28;20042;-54
2023/06/12 02:02:17;;;;;;;3.10;1.90;;;;;;;17.30;43.30;101542.56;15549943;28;20045;-49
2023/06/12 02:09:50;;;;;;;3.83;2.05;;;;;;;17.11;43.56;101538.28;15534069;28;20139;-49
2023/06/12 02:17:24;;;;;;;2.58;1.75;;;;;;;16.68;43.92;101540.16;15532943;28;20045;-49
2023/06/12 02:24:57;;;;;;;2.85;1.70;;;;;;;16.89;43.94;101535.31;15551856;23;20053;-47
2023/06/12 02:32:34;;;;;;;2.75;1.80;;;;;;;16.53;44.31;101537.88;15604083;28;20409;-48
2023/06/12 02:40:08;;;;;;;2.97;1.65;;;;;;;16.54;44.03;101539.53;15595448;28;20057;-44
2023/06/12 02:47:43;;;;;;;2.20;1.40;;;;;;;16.78;43.58;101547.75;15604041;28;20103;-44
2023/06/12 02:55:18;;;;;;;2.00;1.10;;;;;;;16.64;44.54;101554.41;15604710;28;20044;-45
2023/06/12 03:02:55;;;;;;;4.53;1.70;;;;;;;16.28;45.18;101558.88;15603433;28;20081;-44
2023/06/12 03:10:28;;;;;;;3.05;1.38;;;;;;;16.00;44.72;101562.97;15602731;28;20437;-47
2023/06/12 03:18:03;;;;;;;3.88;1.77;;;;;;;16.33;44.68;101569.84;15585800;28;20084;-52
2023/06/12 03:25:36;;;;;;;2.65;1.52;;;;;;;16.44;44.20;101563.66;15602091;28;20132;-45
2023/06/12 03:33:11;;;;;;;1.65;1.15;;;;;;;16.24;45.19;101577.47;15592240;28;20060;-51
2023/06/12 03:40:46;;;;;;;2.47;1.33;;;;;;;15.53;45.45;101584.25;15613568;28;20087;-48
2023/06/12 03:48:22;;;;;;;4.88;1.80;;;;;;;15.84;45.53;101576.25;15612558;28;20046;-47
2023/06/12 03:55:55;;;;;;;2.75;1.88;;;;;;;16.30;45.39;101578.41;15612727;28;20320;-44
2023/06/12 04:03:29;;;;;;;;;;;;;;;16.29;46.76;101580.31;15612686;28;20041;-51
2023/06/12 04:11:02;;;;;;;3.65;2.03;;;;;;;16.34;47.12;101571.50;15612477;28;19933;-52
2023/06/12 04:18:38;;;;;;;2.47;1.27;;;;;;;16.33;45.95;101581.50;15595797;28;20163;-47
2023/06/12 04:26:11;;;;;;;2.13;1.60;;;;;;;15.99;46.10;101590.25;15610596;28;20371;-46
2023/06/12 04:33:45;;;;;;;3.70;1.80;;;;;;;16.76;45.27;101593.28;15611505;28;20060;-49
2023/06/12 04:41:19;;;;;;;4.38;1.80;;;;;;;16.92;43.98;101594.50;15609488;28;20069;-48
2023/06/12 04:48:53;;;;;;;3.63;1.55;;;;;;;16.82;44.29;101597.75;15609478;28;20549;-49
2023/06/12 04:56:31;;;;;;;1.65;1.15;;;;;;;17.20;43.12;101602.81;15610038;28;20041;-51
2023/06/12 05:04:06;;;;;;;3.63;1.63;;;;;;;17.16;43.10;101598.94;15608917;28;20045;-50
2023/06/12 05:11:39;;;;;;;3.05;1.00;;;;;;;17.57;41.90;101597.19;15608588;28;20485;-48
2023/06/12 05:19:15;;;;;;;3.17;1.58;;;;;;;17.58;40.77;101605.13;15608789;28;20049;-50
2023/06/12 05:26:48;;;;;;;4.20;1.60;;;;;;;18.15;40.70;101601.78;15607024;28;20457;-53
2023/06/12 05:34:22;;;;;;;4.70;1.27;;;;;;;19.16;39.70;101604.00;15606927;28;20304;-48
2023/06/12 05:41:54;;;;;;;2.03;1.23;;;;;;;19.12;38.10;101606.41;15590111;28;20073;-49
2023/06/12 05:49:28;;;;;;;1.77;1.00;;;;;;;19.71;36.84;101606.81;15607772;28;20049;-44
2023/06/12 05:57:02;;;;;;;1.42;1.30;;;;;;;19.96;35.97;101608.22;15605861;28;20502;-48
2023/06/12 06:04:38;;;;;;;2.17;1.30;;;;;;;20.55;35.55;101606.56;15605874;28;20048;-43
2023/06/12 06:12:11;;;;;;;3.20;1.48;;;;;;;21.32;36.15;101613.63;15605639;28;20053;-45
2023/06/12 06:19:46;;;;;;;2.67;1.23;;;;;;;21.08;34.27;101620.50;15589379;28;20053;-46
2023/06/12 06:27:19;;;;;;;1.25;0.93;;;;;;;22.15;33.37;101624.88;15605410;28;20109;-44
2023/06/12 06:34:55;;;;;;;1.80;1.23;;;;;;;21.66;33.80;101629.72;15605447;28;20072;-45
2023/06/12 06:42:30;;;;;;;2.50;1.27;;;;;;;22.51;32.47;101626.91;15605651;28;20103;-47
2023/06/12 06:50:11;;;;;;;1.73;1.25;;;;;;;23.20;31.72;101626.53;15605038;28;20064;-45
2023/06/12 06:57:45;;;;;;;3.03;1.65;;;;;;;23.37;29.93;101637.22;15604203;28;20096;-49
2023/06/12 07:05:21;;;;;;;4.18;1.70;;;;;;;23.88;30.76;101645.41;15589672;28;20066;-51
2023/06/12 07:12:56;;;;;;;2.33;1.45;;;;;;;24.41;29.79;101638.41;15599859;28;20104;-48
2023/06/12 07:20:35;;;;;;;2.40;1.38;;;;;;;24.93;28.99;101647.19;15600028;28;20406;-47
2023/06/12 07:28:08;;;;;;;2.28;1.02;;;;;;;25.22;28.57;101643.72;15614562;28;20475;-46
2023/06/12 07:35:44;;;;;;;6.93;1.30;;;;;;;26.23;26.60;101650.16;15599918;28;20506;-51
2023/06/12 07:43:17;;;;;;;1.60;1.30;;;;;;;26.46;26.67;101648.53;15614892;28;20042;-47
2023/06/12 07:50:52;;;;;;;3.42;1.73;;;;;;;25.07;26.96;101639.13;15614943;28;20344;-49
2023/06/12 07:58:25;;;;;;;2.08;1.00;;;;;;;25.64;26.17;101638.38;15597435;28;20068;-49
2023/06/12 08:05:59;;;;;;;5.30;2.00;;;;;;;26.61;25.54;101629.06;15613249;28;20137;-50
2023/06/12 08:13:33;;;;;;;2.25;1.25;;;;;;;26.38;24.52;101621.63;15612304;28;20037;-49
2023/06/12 08:21:07;;;;;;;2.53;1.27;;;;;;;26.95;23.30;101623.34;15613176;28;20072;-46
2023/06/12 08:28:40;;;;;;;2.80;1.50;;;;;;;27.16;23.88;101610.06;15611220;28;20033;-47
2023/06/12 08:36:19;;;;;;;2.42;0.90;;;;;;;26.50;22.40;101610.22;15595310;28;20053;-47
2023/06/12 08:43:54;;;;;;;3.08;1.23;;;;;;;26.10;24.22;101606.84;15613349;28;20041;-44
2023/06/12 08:51:32;;;;;;;1.42;0.93;;;;;;;26.06;24.39;101606.59;15611031;28;20525;-51
2023/06/12 08:59:05;;;;;;;3.42;1.35;;;;;;;26.11;24.47;101601.06;15593289;28;20080;-48
2023/06/12 09:06:40;;;;;;;2.05;1.00;;;;;;;25.76;25.09;101613.28;15610678;28;20485;-49
2023/06/12 09:14:12;;;;;;;3.97;1.27;;;;;;;26.92;24.27;101603.81;15608898;28;20034;-50
2023/06/12 09:21:49;;;;;;;5.60;1.80;;;;;;;28.01;22.96;101605.22;15609913;28;20049;-52
2023/06/12 09:29:26;;;;;;;3.17;1.58;;;;;;;28.51;22.84;101597.03;15608457;28;20042;-50
2023/06/12 09:37:02;;;;;;;2.58;1.38;;;;;;;27.36;23.42;101589.59;15608794;28;20042;-48
2023/06/12 09:44:35;;;;;;;2.67;1.60;;;;;;;26.96;23.57;101594.66;15608551;28;20034;-44
2023/06/12 09:52:11;;;;;;;2.35;0.93;;;;;;;27.16;23.94;101578.94;15607233;28;20064;-48
2023/06/12 09:59:47;;;;;;;2.08;1.33;;;;;;;26.91;23.96;101580.16;15589355;28;20084;-46
2023/06/12 10:07:27;;;;;;;3.13;1.73;;;;;;;28.14;23.21;101579.56;15607263;28;20053;-46
2023/06/12 10:15:03;;;;;;;2.93;1.43;;;;;;;27.99;24.35;101574.38;15606414;28;20099;-47
2023/06/12 10:22:37;;;;;;;2.85;1.27;;;;;;;27.62;24.14;101578.94;15599500;28;20457;-51
2023/06/12 10:30:11;;;;;;;4.30;2.08;;;;;;;26.58;26.99;101576.50;15605634;28;20159;-51
2023/06/12 10:37:47;;;;;;;2.22;1.25;;;;;;;25.90;28.65;101572.97;15588559;28;20132;-48
2023/06/12 10:45:23;;;;;;;2.88;1.55;;;;;;;25.76;29.33;101562.97;15617665;28;20113;-49
2023/06/12 10:53:00;;;;;;;3.63;1.77;;;;;;;25.99;28.54;101556.63;15617820;28;20053;-51
2023/06/12 11:00:35;;;;;;;3.85;1.60;;;;;;;28.14;26.22;101553.91;15619734;28;20111;-51
2023/06/12 11:08:10;;;;;;;4.65;1.50;;;;;;;26.66;26.71;101538.09;15616388;28;20048;-47
2023/06/12 11:15:46;;;;;;;3.88;1.77;;;;;;;26.23;26.68;101526.31;15617643;28;20053;-48
2023/06/12 11:23:22;;;;;;;1.65;0.95;;;;;;;28.67;24.62;101512.66;15598742;28;20140;-45
2023/06/12 11:30:55;;;;;;;2.03;1.20;;;;;;;29.09;21.86;101506.94;15598533;28;20050;-50
2023/06/12 11:38:29;;;;;;;3.15;1.50;;;;;;;28.42;22.55;101494.75;15615002;28;20084;-49
2023/06/12 11:46:03;;;;;;;4.45;1.77;;;;;;;29.34;21.96;101492.44;15615581;28;20450;-44
2023/06/12 11:53:37;;;;;;;2.90;1.52;;;;;;;29.85;20.35;101506.81;15606852;28;20042;-47
2023/06/12 12:01:14;;;;;;;2.85;1.60;;;;;;;28.70;21.79;101487.16;15615328;28;20593;-49
2023/06/12 12:08:55;;;;;;;2.13;1.35;;;;;;;27.02;24.54;101487.09;15623787;28;20033;-48
2023/06/12 12:16:29;;;;;;;4.28;1.83;;;;;;;27.39;25.42;101488.94;15612448;28;20084;-45
2023/06/12 12:24:04;;;;;;;5.85;2.00;;;;;;;28.26;24.30;101479.66;15608611;28;20041;-47
2023/06/12 12:31:37;;;;;;;4.88;2.15;;;;;;;27.49;23.90;101458.38;15599681;28;20064;-51
2023/06/12 12:39:11;;;;;;;2.10;1.50;;;;;;;28.18;23.54;101464.63;15611270;28;20196;-48
2023/06/12 12:46:44;;;;;;;1.90;1.15;;;;;;;29.01;22.84;101457.97;15612987;28;20099;-52
2023/06/12 12:54:18;;;;;;;2.90;1.50;;;;;;;29.12;22.52;101454.59;15612066;28;20125;-48
2023/06/12 13:01:51;;;;;;;2.60;1.75;;;;;;;29.47;22.74;101438.13;15593891;28;20471;-48
2023/06/12 13:09:25;;;;;;;2.08;1.00;;;;;;;28.91;23.15;101431.34;15610380;28;20053;-51
2023/06/12 13:16:57;;;;;;;2.55;1.40;;;;;;;27.48;25.15;101428.38;15608797;28;20096;-49
2023/06/12 13:24:31;;;;;;;5.00;1.42;;;;;;;28.15;23.55;101429.38;15608340;28;20605;-46
2023/06/12 13:32:05;;;;;;;2.20;1.25;;;;;;;28.08;23.23;101423.47;15607307;28;20399;-47
2023/06/12 13:39:40;;;;;;;5.93;1.45;;;;;;;28.38;22.01;101423.91;15606397;28;20068;-46
2023/06/12 13:47:13;;;;;;;2.35;1.30;;;;;;;28.12;22.68;101412.59;15607299;28;20121;-55
2023/06/12 13:54:47;;;;;;;2.55;1.63;;;;;;;28.09;23.41;101407.72;15605768;28;20055;-49
2023/06/12 14:02:20;;;;;;;3.50;1.77;;;;;;;28.44;23.20;101408.81;15604900;28;20517;-48
2023/06/12 14:09:54;;;;;;;2.33;1.52;;;;;;;27.32;23.75;101401.09;15605223;28;20045;-50
2023/06/12 14:17:27;;;;;;;1.58;0.98;;;;;;;27.58;23.77;101395.88;15604158;28;20405;-49
2023/06/12 14:25:01;;;;;;;4.90;1.55;;;;;;;26.33;25.92;101399.56;15622684;23;20403;-51
2023/06/12 14:32:34;;;;;;;4.50;1.77;;;;;;;27.59;24.43;101397.50;15552930;28;20526;-50
2023/06/12 14:40:09;;;;;;;4.32;1.73;;;;;;;27.23;23.67;101389.16;15536938;28;20057;-52
2023/06/12 14:47:42;;;;;;;7.43;1.60;;;;;;;27.18;23.91;101386.50;15549293;28;20069;-49
2023/06/12 14:55:16;;;;;;;3.55;1.67;;;;;;;26.86;24.19;101376.34;15549306;28;20506;-52
2023/06/12 15:02:50;;;;;;;1.02;0.93;;;;;;;26.80;24.15;101366.56;15556420;28;20084;-51
2023/06/12 15:10:24;;;;;;;4.10;1.42;;;;;;;27.16;24.36;101366.72;15562927;28;20056;-49
2023/06/12 15:17:57;;;;;;;4.22;1.55;;;;;;;27.15;23.61;101363.16;15548295;28;20414;-50
2023/06/12 15:25:31;;;;;;;2.85;1.52;;;;;;;26.73;24.21;101352.38;15545758;28;20037;-49
2023/06/12 15:33:04;;;;;;;4.32;1.70;;;;;;;26.61;24.28;101367.44;15558405;28;20066;-49
2023/06/12 15:40:38;;;;;;;2.13;1.48;;;;;;;26.37;25.02;101362.06;15561091;28;20050;-49
2023/06/12 15:48:13;;;;;;;2.42;1.33;;;;;;;26.16;24.80;101352.50;15541562;28;20073;-47
2023/06/12 15:55:48;;;;;;;2.28;1.45;;;;;;;27.37;23.74;101342.28;15540997;28;20052;-49
2023/06/12 16:03:20;;;;;;;5.97;1.50;;;;;;;26.37;24.99;101345.53;15541613;28;20104;-52
2023/06/12 16:10:55;;;;;;;3.97;1.48;;;;;;;26.43;25.16;101340.78;15540837;28;21212;-51
2023/06/12 16:18:28;;;;;;;26.95;11.07;;;;;;;25.86;25.82;101334.56;15558503;28;20045;-49
2023/06/12 16:26:02;;;;;;;2.50;1.42;;;;;;;26.09;25.58;101335.56;15556650;28;20128;-53
2023/06/12 16:33:36;;;;;;;2.10;1.40;;;;;;;25.62;26.11;101335.41;15548755;28;20145;-50
2023/06/12 16:41:10;;;;;;;2.72;1.50;;;;;;;26.16;25.38;101325.81;15557540;28;20054;-50
2023/06/12 16:48:43;;;;;;;4.13;1.38;;;;;;;26.01;25.41;101328.81;15555789;28;20049;-48
2023/06/12 16:56:17;;;;;;;1.35;1.08;;;;;;;25.28;26.13;101321.88;15546743;28;20473;-52
2023/06/12 17:03:50;;;;;;;2.20;1.40;;;;;;;25.37;25.96;101328.34;15552981;28;20507;-50
2023/06/12 17:11:24;;;;;;;2.95;1.20;;;;;;;25.31;25.89;101332.25;15558217;28;20100;-50
2023/06/12 17:19:00;;;;;;;4.53;1.38;;;;;;;24.90;26.40;101323.66;15566784;28;20145;-48
2023/06/12 17:26:34;;;;;;;2.63;1.25;;;;;;;24.81;26.22;101319.97;15557179;28;20033;-46
2023/06/12 17:34:07;;;;;;;1.90;1.20;;;;;;;25.07;26.26;101318.56;15554553;28;20046;-49
2023/06/12 17:41:41;;;;;;;3.42;1.42;;;;;;;24.69;26.48;101314.84;15552376;28;20050;-50
2023/06/12 17:49:13;;;;;;;2.08;1.23;;;;;;;24.63;26.54;101316.03;15548874;28;20038;-52
2023/06/12 17:56:48;;;;;;;8.15;3.70;;;;;;;24.45;27.28;101316.75;15550197;28;20033;-49
2023/06/12 18:04:21;;;;;;;3.20;1.63;;;;;;;24.70;27.12;101313.75;15535591;28;20042;-50
2023/06/12 18:11:56;;;;;;;1.77;1.15;;;;;;;24.23;27.41;101309.78;15550954;28;20069;-47
2023/06/12 18:19:29;;;;;;;2.85;1.50;;;;;;;24.38;27.32;101309.66;15543117;28;20034;-54
2023/06/12 18:27:03;;;;;;;1.88;0.85;;;;;;;24.06;27.86;101312.97;15552038;28;20530;-49
2023/06/12 18:34:38;;;;;;;2.20;1.30;;;;;;;23.97;27.38;101311.09;15556687;28;20450;-45
2023/06/12 18:42:12;;;;;;;2.13;1.25;;;;;;;23.76;27.67;101296.72;15549987;28;20089;-50
2023/06/12 18:49:44;;;;;;;5.10;1.42;;;;;;;23.51;28.04;101297.69;15545057;28;20140;-48
2023/06/12 18:57:18;;;;;;;3.33;1.58;;;;;;;23.98;28.16;101307.25;15545990;28;20533;-54
2023/06/12 19:04:51;;;;;;;4.95;2.33;;;;;;;23.61;28.72;101311.31;15553836;28;20057;-55
2023/06/12 19:12:25;;;;;;;10.60;2.20;;;;;;;23.07;29.00;101321.16;15556201;28;20144;-50
2023/06/12 19:19:57;;;;;;;3.13;1.48;;;;;;;22.89;29.52;101319.03;15558341;28;20124;-52
2023/06/12 19:27:32;;;;;;;1.92;1.25;;;;;;;22.69;29.78;101316.34;15562774;28;20065;-49
2023/06/12 19:35:05;;;;;;;3.05;2.08;;;;;;;23.05;30.16;101326.13;15555713;28;20046;-52
2023/06/12 19:42:39;;;;;;;3.22;1.25;;;;;;;23.02;30.69;101328.59;15552354;28;20050;-48
2023/06/12 19:50:12;;;;;;;2.88;1.27;;;;;;;23.13;30.78;101332.94;15552444;28;20052;-47
2023/06/12 19:57:48;;;;;;;1.73;1.38;;;;;;;23.09;31.55;101320.91;15560798;28;20151;-52
2023/06/12 20:05:20;;;;;;;3.05;1.48;;;;;;;22.81;31.97;101334.09;15556883;28;20050;-46
2023/06/12 20:12:55;;;;;;;;;;;;;;;22.61;33.02;101331.41;15549587;28;20057;-48
2023/06/12 20:20:33;;;;;;;4.38;1.30;;;;;;;22.34;32.75;101324.34;15546573;28;19932;-49
2023/06/12 20:28:07;;;;;;;4.97;1.65;;;;;;;21.93;33.12;101323.47;15544699;28;20041;-49
2023/06/12 20:35:40;;;;;;;3.28;1.55;;;;;;;22.10;33.35;101310.38;15543771;28;20164;-48
2023/06/12 20:43:14;;;;;;;3.72;1.27;;;;;;;21.91;34.00;101312.78;15545151;28;20105;-48
2023/06/12 20:50:47;;;;;;;2.60;1.67;;;;;;;21.54;34.85;101309.44;15547236;28;20061;-50
2023/06/12 20:58:21;;;;;;;2.15;1.60;;;;;;;21.33;35.69;101317.59;15548708;28;20376;-47
2023/06/12 21:05:53;;;;;;;3.17;1.85;;;;;;;21.08;35.78;101309.28;15545751;28;20045;-50
2023/06/12 21:13:28;;;;;;;2.42;1.15;;;;;;;20.37;37.04;101305.00;15544059;28;20057;-49
2023/06/12 21:21:01;;;;;;;5.40;1.83;;;;;;;19.80;36.62;101294.75;15540957;28;20527;-48
2023/06/12 21:28:35;;;;;;;2.47;1.02;;;;;;;19.96;35.59;101278.53;15535677;23;20046;-82
2023/06/12 21:36:08;;;;;;;1.02;0.70;;;;;;;20.23;36.27;101311.19;15513538;28;20050;-80
2023/06/12 21:43:57;;;;;;;0.90;0.60;;;;;;;20.47;35.27;101300.72;15566398;28;20034;-81
2023/06/12 21:51:42;;;;;;;1.67;0.90;;;;;;;20.12;35.61;101300.19;15524337;28;20117;-81
2023/06/12 21:59:18;;;;;;;1.25;0.82;;;;;;;20.09;35.42;101273.47;15543536;28;20193;-84
2023/06/12 22:06:50;;;;;;;1.25;0.60;;;;;;;20.02;35.77;101282.94;15512613;28;20510;-82
2023/06/12 22:14:25;;;;;;;;;;;;;;;20.02;35.81;101300.13;15518785;28;20141;-80
2023/06/12 22:21:58;;;;;;;1.58;0.73;;;;;;;19.55;36.03;101308.09;15499207;28;19922;-82
2023/06/12 22:29:32;;;;;;;2.13;1.00;;;;;;;19.94;35.68;101283.41;15515711;28;20066;-84
2023/06/12 22:37:05;;;;;;;1.05;0.70;;;;;;;19.96;36.02;101290.28;15509335;28;20057;-81
2023/06/12 22:44:41;;;;;;;1.52;0.80;;;;;;;19.85;36.01;101247.66;15496769;28;20081;-82
2023/06/12 22:52:14;;;;;;;2.92;0.85;;;;;;;19.97;36.62;101278.28;15513988;28;20050;-81
2023/06/12 22:59:49;;;;;;;1.95;1.15;;;;;;;20.00;37.06;101280.47;15492132;28;20039;-83
2023/06/12 23:07:22;;;;;;;1.38;0.75;;;;;;;19.78;36.69;101285.19;15512391;28;20503;-82
2023/06/12 23:14:56;;;;;;;1.20;0.65;;;;;;;19.44;37.06;101271.75;15496136;28;20133;-81
2023/06/12 23:22:30;;;;;;;2.50;0.95;;;;;;;19.21;37.88;101272.03;15499836;28;20042;-82
2023/06/12 23:30:06;;;;;;;2.45;0.65;;;;;;;19.38;37.80;101270.88;15499421;28;20074;-80
2023/06/12 23:37:38;;;;;;;8.90;0.95;;;;;;;19.12;38.00;101249.91;15494252;28;20046;-82
2023/06/12 23:45:13;;;;;;;2.47;1.20;;;;;;;18.77;39.27;101250.28;15510254;28;20074;-80
2023/06/12 23:52:45;;;;;;;1.30;0.77;;;;;;;18.38;40.56;101223.09;15492667;28;20078;-81
